createdAt,value
2024-03-05T00:00:02.631Z,12.23
2024-03-05T00:05:02.703Z,14.25
2024-03-05T00:10:02.938Z,9.80
2024-03-05T00:15:03.167Z,12.07
2024-03-05T00:20:02.466Z,10.50
2024-03-05T00:25:02.737Z,12.27
2024-03-05T00:30:02.990Z,12.05
2024-03-05T00:35:02.228Z,10.88
2024-03-05T00:40:02.680Z,11.25
2024-03-05T00:45:02.816Z,10.13
2024-03-05T00:50:03.109Z,10.98
2024-03-05T00:55:02.568Z,11.38
2024-03-05T01:00:02.712Z,12.25
2024-03-05T01:05:02.414Z,12.90
2024-03-05T01:10:02.746Z,12.65
2024-03-05T01:15:02.917Z,11.18
2024-03-05T01:20:02.418Z,14.18
2024-03-05T01:25:02.830Z,15.45
2024-03-05T01:30:03.669Z,12.95
2024-03-05T01:35:02.833Z,15.50
2024-03-05T01:40:03.167Z,14.35
2024-03-05T01:45:02.278Z,16.25
2024-03-05T01:50:02.644Z,16.77
2024-03-05T01:55:02.941Z,14.98
2024-03-05T02:00:03.145Z,17.45
2024-03-05T02:05:02.921Z,16.50
2024-03-05T02:10:02.100Z,20.52
2024-03-05T02:15:02.215Z,15.85
2024-03-05T02:20:02.539Z,18.58
2024-03-05T02:25:02.844Z,17.02
2024-03-05T02:30:03.204Z,21.35
2024-03-05T02:35:02.399Z,18.98
2024-03-05T02:40:02.647Z,21.25
2024-03-05T02:45:02.984Z,15.18
2024-03-05T02:50:02.320Z,16.30
2024-03-05T02:55:02.612Z,18.25
2024-03-05T03:00:03.001Z,15.23
2024-03-05T03:05:02.233Z,21.33
2024-03-05T03:10:02.436Z,18.63
2024-03-05T03:15:02.665Z,19.63
2024-03-05T03:20:02.937Z,16.63
2024-03-05T03:25:02.110Z,15.35
2024-03-05T03:30:02.229Z,17.35
2024-03-05T03:35:02.574Z,18.15
2024-03-05T03:40:02.822Z,17.92
2024-03-05T03:45:03.079Z,17.88
2024-03-05T03:50:02.360Z,21.60
2024-03-05T03:55:02.661Z,27.92
2024-03-05T04:00:02.910Z,25.92
2024-03-05T04:05:03.128Z,27.88
2024-03-05T04:10:02.425Z,31.90
2024-03-05T04:15:02.625Z,30.77
2024-03-05T04:20:03.036Z,32.85
2024-03-05T04:25:02.411Z,29.52
2024-03-05T04:30:02.677Z,30.35
2024-03-05T04:35:03.068Z,26.17
2024-03-05T04:40:02.449Z,30.88
2024-03-05T04:45:02.656Z,33.55
2024-03-05T04:50:02.871Z,31.80
2024-03-05T04:55:03.178Z,29.90
2024-03-05T05:00:02.461Z,30.08
2024-03-05T05:05:02.731Z,34.17
2024-03-05T05:10:03.155Z,32.67
2024-03-05T05:15:02.369Z,36.35
2024-03-05T05:20:02.790Z,40.67
2024-03-05T05:25:03.137Z,37.08
2024-03-05T05:30:09.146Z,39.35
2024-03-05T05:35:02.936Z,38.95
2024-03-05T05:40:03.417Z,39.95
2024-03-05T05:45:02.692Z,34.28
2024-03-05T05:50:03.069Z,40.22
2024-03-05T05:55:02.366Z,40.10
2024-03-05T06:00:02.689Z,43.90
2024-03-05T06:05:03.098Z,46.10
2024-03-05T06:10:02.332Z,42.95
2024-03-05T06:15:02.580Z,46.05
2024-03-05T06:20:02.910Z,49.35
2024-03-05T06:25:02.100Z,45.55
2024-03-05T06:30:02.364Z,39.28
2024-03-05T06:35:02.574Z,44.08
2024-03-05T06:40:02.786Z,50.03
2024-03-05T06:45:03.049Z,50.05
2024-03-05T06:50:02.391Z,47.80
2024-03-05T06:55:02.670Z,46.58
2024-03-05T07:00:02.805Z,44.78
2024-03-05T07:05:03.173Z,48.10
2024-03-05T07:10:02.473Z,54.15
2024-03-05T07:15:02.603Z,51.78
2024-03-05T07:20:02.889Z,46.05
2024-03-05T07:25:03.149Z,43.70
2024-03-05T07:30:02.284Z,51.70
2024-03-05T07:35:02.489Z,56.65
2024-03-05T07:40:02.801Z,56.67
2024-03-05T07:45:03.040Z,62.38
2024-03-05T07:50:02.547Z,58.28
2024-03-05T07:55:02.869Z,57.88
2024-03-05T08:00:03.025Z,55.25
2024-03-05T08:05:02.431Z,60.67
2024-03-05T08:10:02.883Z,56.65
2024-03-05T08:15:07.073Z,61.05
2024-03-05T08:20:04.132Z,61.65
2024-03-05T08:25:02.374Z,63.30
2024-03-05T08:30:02.516Z,73.68
2024-03-05T08:35:02.697Z,65.50
2024-03-05T08:40:02.952Z,69.72
2024-03-05T08:45:02.109Z,63.25
2024-03-05T08:50:02.407Z,60.72
2024-03-05T08:55:02.620Z,67.13
2024-03-05T09:00:09.493Z,64.40
2024-03-05T09:05:02.740Z,64.05
2024-03-05T09:10:03.114Z,61.78
2024-03-05T09:15:02.642Z,64.25
2024-03-05T09:20:03.102Z,63.55
2024-03-05T09:25:02.392Z,61.22
2024-03-05T09:30:02.786Z,64.88
2024-03-05T09:35:02.983Z,56.85
2024-03-05T09:40:02.224Z,69.43
2024-03-05T09:45:02.509Z,63.30
2024-03-05T09:50:02.890Z,60.92
2024-03-05T09:55:02.387Z,60.42
2024-03-05T10:00:02.847Z,57.42
2024-03-05T10:05:03.606Z,64.07
2024-03-05T10:10:09.352Z,58.42
2024-03-05T10:15:02.560Z,55.83
2024-03-05T10:20:03.099Z,63.13
2024-03-05T10:25:02.354Z,57.40
2024-03-05T10:30:02.690Z,58.08
2024-03-05T10:35:03.047Z,45.05
2024-03-05T10:40:02.382Z,50.17
2024-03-05T10:45:02.658Z,47.15
2024-03-05T10:50:03.065Z,40.30
2024-03-05T10:55:06.178Z,43.83
2024-03-05T11:00:02.980Z,39.70
2024-03-05T11:05:02.348Z,37.92
2024-03-05T11:10:02.792Z,38.47
2024-03-05T11:15:03.047Z,35.72
2024-03-05T11:20:02.251Z,32.55
2024-03-05T11:25:02.554Z,37.35
2024-03-05T11:30:02.777Z,32.20
2024-03-05T11:35:03.171Z,36.13
2024-03-05T11:40:02.547Z,34.67
2024-03-05T11:45:02.747Z,37.10
2024-03-05T11:50:03.095Z,30.92
2024-03-05T11:55:02.316Z,30.80
2024-03-05T12:00:02.518Z,32.13
2024-03-05T12:05:02.788Z,33.28
2024-03-05T12:10:03.054Z,28.48
2024-03-05T12:15:05.576Z,29.08
2024-03-05T12:20:02.993Z,28.33
2024-03-05T12:25:02.360Z,28.52
2024-03-05T12:30:02.908Z,25.52
2024-03-05T12:35:02.334Z,24.98
2024-03-05T12:40:02.532Z,24.67
2024-03-05T12:45:02.741Z,23.60
2024-03-05T12:50:03.029Z,24.13
2024-03-05T12:55:02.343Z,23.15
2024-03-05T13:00:02.713Z,21.15
2024-03-05T13:05:02.944Z,22.45
2024-03-05T13:10:02.331Z,20.70
2024-03-05T13:15:02.466Z,19.27
2024-03-05T13:20:02.857Z,20.88
2024-03-05T13:25:02.222Z,18.23
2024-03-05T13:30:10.132Z,18.30
2024-03-05T13:35:03.220Z,17.92
2024-03-05T13:40:03.732Z,20.23
2024-03-05T13:45:02.963Z,19.10
2024-03-05T13:50:02.454Z,19.23
2024-03-05T13:55:02.733Z,19.60
2024-03-05T14:00:03.104Z,15.80
2024-03-05T14:05:02.467Z,19.95
2024-03-05T14:10:02.816Z,16.25
2024-03-05T14:15:03.180Z,16.55
2024-03-05T14:20:02.556Z,16.30
2024-03-05T14:25:02.957Z,14.85
2024-03-05T14:30:02.201Z,16.00
2024-03-05T14:35:02.558Z,16.45
2024-03-05T14:40:04.361Z,17.75
2024-03-05T14:45:03.214Z,17.63
2024-03-05T14:50:02.612Z,15.25
2024-03-05T14:55:03.049Z,19.88
2024-03-05T15:00:02.297Z,19.10
2024-03-05T15:05:02.581Z,20.85
2024-03-05T15:10:02.918Z,20.02
2024-03-05T15:15:03.232Z,21.15
2024-03-05T15:20:02.703Z,19.75
2024-03-05T15:25:02.993Z,19.05
2024-03-05T15:30:02.863Z,21.60
2024-03-05T15:35:03.200Z,19.55
2024-03-05T15:40:02.591Z,20.73
2024-03-05T15:45:02.774Z,21.40
2024-03-05T15:50:03.197Z,21.63
2024-03-05T15:55:04.366Z,21.58
2024-03-05T16:00:02.694Z,19.85
2024-03-05T16:05:17.521Z,16.10
2024-03-05T16:10:12.927Z,0
2024-03-05T16:15:02.272Z,20.08
2024-03-05T16:20:02.699Z,16.95
2024-03-05T16:25:11.645Z,12.13
2024-03-05T16:30:03.000Z,13.02
2024-03-05T16:35:02.184Z,12.52
2024-03-05T16:40:02.472Z,11.68
2024-03-05T16:45:02.753Z,12.55
2024-03-05T16:50:03.034Z,16.05
2024-03-05T16:55:02.372Z,13.63
2024-03-05T17:00:02.608Z,15.00
2024-03-05T17:05:02.829Z,12.43
2024-03-05T17:10:03.037Z,14.68
2024-03-05T17:15:02.293Z,10.07
2024-03-05T17:20:02.656Z,14.88
2024-03-05T17:25:03.000Z,11.75
2024-03-05T17:30:02.148Z,15.82
2024-03-05T17:35:02.436Z,11.93
2024-03-05T17:40:02.574Z,12.02
2024-03-05T17:45:02.790Z,13.02
2024-03-05T17:50:03.094Z,14.40
2024-03-05T17:55:02.305Z,15.05
2024-03-05T18:00:02.590Z,10.40
2024-03-05T18:05:02.737Z,12.10
2024-03-05T18:10:02.993Z,14.43
2024-03-05T18:15:02.418Z,14.15
2024-03-05T18:20:02.877Z,11.57
2024-03-05T18:25:02.120Z,11.27
2024-03-05T18:30:02.624Z,12.80
2024-03-05T18:35:03.292Z,11.85
2024-03-05T18:40:02.650Z,11.02
2024-03-05T18:45:02.893Z,12.75
2024-03-05T18:50:03.339Z,11.10
2024-03-05T18:55:02.497Z,13.32
2024-03-05T19:00:02.700Z,12.68
2024-03-05T19:05:02.938Z,14.77
2024-03-05T19:10:05.503Z,16.02
2024-03-05T19:15:03.740Z,16.23
2024-03-05T19:20:03.035Z,14.60
2024-03-05T19:25:04.371Z,15.43
2024-03-05T19:30:02.496Z,12.55
2024-03-05T19:35:03.378Z,16.20
2024-03-05T19:40:02.713Z,14.75
2024-03-05T19:45:02.928Z,18.85
2024-03-05T19:50:03.223Z,19.40
2024-03-05T19:55:02.526Z,15.65
2024-03-05T20:00:03.708Z,14.32
2024-03-05T20:05:03.085Z,18.15
2024-03-05T20:10:02.901Z,19.45
2024-03-05T20:15:03.836Z,19.20
2024-03-05T20:20:03.066Z,20.63
2024-03-05T20:25:02.425Z,15.85
2024-03-05T20:30:02.642Z,14.77
2024-03-05T20:35:02.913Z,16.35
2024-03-05T20:40:02.289Z,14.40
2024-03-05T20:45:02.432Z,16.33
2024-03-05T20:50:02.699Z,16.77
2024-03-05T20:55:02.901Z,18.20
2024-03-05T21:00:03.018Z,17.80
2024-03-05T21:05:02.253Z,15.80
2024-03-05T21:10:03.689Z,13.85
2024-03-05T21:15:02.825Z,16.17
2024-03-05T21:20:03.250Z,14.50
2024-03-05T21:25:02.546Z,19.88
2024-03-05T21:30:02.714Z,15.57
2024-03-05T21:35:03.022Z,19.60
2024-03-05T21:40:02.315Z,16.73
2024-03-05T21:45:02.559Z,16.60
2024-03-05T21:50:02.835Z,16.20
2024-03-05T21:55:03.046Z,13.85
2024-03-05T22:00:03.605Z,16.00
2024-03-05T22:05:02.990Z,16.23
2024-03-05T22:10:02.172Z,18.38
2024-03-05T22:15:03.629Z,16.92
2024-03-05T22:20:02.909Z,18.08
2024-03-05T22:25:02.252Z,19.42
2024-03-05T22:30:02.444Z,18.67
2024-03-05T22:35:02.615Z,14.57
2024-03-05T22:40:03.042Z,16.20
2024-03-05T22:45:02.227Z,12.88
2024-03-05T22:50:02.587Z,14.55
2024-03-05T22:55:02.895Z,17.02
2024-03-05T23:00:03.146Z,12.25
2024-03-05T23:05:02.516Z,11.70
2024-03-05T23:10:02.855Z,12.70
2024-03-05T23:15:03.081Z,13.48
2024-03-05T23:20:02.350Z,15.15
2024-03-05T23:25:02.741Z,11.70
2024-03-05T23:30:02.992Z,13.65
2024-03-05T23:35:02.490Z,12.88
2024-03-05T23:40:02.715Z,11.73
2024-03-05T23:45:03.006Z,16.42
2024-03-05T23:50:02.377Z,14.23
2024-03-05T23:55:05.734Z,16.25
